createdAt,value
2018-12-26T00:00:00.852Z,9.4
2018-12-26T00:05:00.936Z,11.4
2018-12-26T00:10:00.771Z,12.9
2018-12-26T00:15:00.909Z,13.6
2018-12-26T00:20:01.206Z,14.0
2018-12-26T00:30:00.914Z,11.7
2018-12-26T00:35:00.846Z,11.5
2018-12-26T00:40:00.783Z,12.4
2018-12-26T00:45:00.912Z,11.8
2018-12-26T00:50:01.175Z,11.9
2018-12-26T00:55:00.806Z,11.8
2018-12-26T01:00:00.828Z,11.8
2018-12-26T01:05:00.851Z,11.0
2018-12-26T01:10:00.808Z,10.2
2018-12-26T01:15:00.853Z,10.5
2018-12-26T01:20:00.822Z,11.0
2018-12-26T01:30:05.873Z,11.0
2018-12-26T01:35:05.861Z,11.3
2018-12-26T01:40:00.830Z,11.2
2018-12-26T01:45:00.834Z,10.8
2018-12-26T01:50:00.826Z,9.9
2018-12-26T01:55:01.722Z,9.7
2018-12-26T02:00:01.201Z,9.1
2018-12-26T02:05:00.882Z,9.0
2018-12-26T02:10:05.810Z,9.9
2018-12-26T02:15:01.245Z,10.6
2018-12-26T02:25:00.928Z,12.1
2018-12-26T02:30:00.798Z,12.9
2018-12-26T02:35:00.867Z,13.3
2018-12-26T02:40:00.805Z,13.7
2018-12-26T02:45:00.864Z,13.6
2018-12-26T02:50:00.800Z,12.5
2018-12-26T02:55:00.801Z,12.0
2018-12-26T03:00:00.807Z,10.7
2018-12-26T03:05:00.923Z,10.3
2018-12-26T03:10:00.828Z,10.8
2018-12-26T03:15:00.875Z,10.6
2018-12-26T03:20:05.827Z,10.7
2018-12-26T03:25:00.969Z,10.5
2018-12-26T03:30:00.842Z,9.8
2018-12-26T03:35:00.899Z,9.3
2018-12-26T03:40:00.849Z,9.7
2018-12-26T03:45:00.919Z,8.9
2018-12-26T03:50:00.851Z,9.1
2018-12-26T03:55:00.981Z,9.6
2018-12-26T04:00:00.862Z,9.3
2018-12-26T04:05:00.943Z,8.8
2018-12-26T04:10:00.852Z,9.0
2018-12-26T04:15:00.980Z,9.0
2018-12-26T04:20:00.855Z,9.3
2018-12-26T04:30:00.849Z,9.3
2018-12-26T04:35:00.921Z,10.0
2018-12-26T04:40:05.865Z,10.3
2018-12-26T04:45:00.927Z,9.9
2018-12-26T04:50:00.862Z,9.8
2018-12-26T04:55:00.999Z,10.2
2018-12-26T05:00:00.860Z,9.2
2018-12-26T05:05:00.870Z,9.1
2018-12-26T05:10:00.867Z,9.8
2018-12-26T05:15:00.938Z,11.0
2018-12-26T05:20:00.875Z,11.3
2018-12-26T05:25:00.872Z,12.1
2018-12-26T05:30:00.871Z,11.4
2018-12-26T05:35:05.978Z,12.0
2018-12-26T05:40:00.874Z,12.3
2018-12-26T05:45:00.928Z,12.3
2018-12-26T05:50:00.876Z,12.0
2018-12-26T05:55:00.878Z,12.6
2018-12-26T06:00:00.880Z,12.0
2018-12-26T06:05:00.946Z,10.7
2018-12-26T06:10:00.883Z,10.5
2018-12-26T06:15:01.377Z,10.9
2018-12-26T06:20:02.213Z,12.0
2018-12-26T06:25:00.912Z,12.3
2018-12-26T06:30:00.845Z,12.8
2018-12-26T06:35:00.920Z,13.4
2018-12-26T06:40:00.860Z,12.8
2018-12-26T06:45:01.273Z,12.2
2018-12-26T06:50:00.854Z,11.4
2018-12-26T06:55:00.962Z,11.0
2018-12-26T07:00:00.858Z,9.8
2018-12-26T07:05:00.923Z,9.9
2018-12-26T07:10:01.313Z,9.6
2018-12-26T07:15:00.861Z,10.0
2018-12-26T07:20:05.865Z,10.6
2018-12-26T07:25:00.921Z,11.4
2018-12-26T07:30:05.876Z,12.5
2018-12-26T07:35:00.929Z,13.9
2018-12-26T07:40:00.861Z,13.2
2018-12-26T07:45:05.869Z,13.0
2018-12-26T07:50:05.869Z,12.8
2018-12-26T07:55:00.864Z,11.5
2018-12-26T08:00:01.034Z,9.6
2018-12-26T08:05:00.940Z,10.5
2018-12-26T08:10:05.872Z,10.0
2018-12-26T08:15:00.999Z,9.6
2018-12-26T08:20:00.872Z,9.7
2018-12-26T08:25:01.003Z,9.9
2018-12-26T08:30:00.841Z,9.3
2018-12-26T08:35:00.942Z,11.1
2018-12-26T08:40:00.878Z,11.3
2018-12-26T08:45:00.956Z,11.5
2018-12-26T08:50:00.846Z,10.9
2018-12-26T08:55:00.946Z,11.5
2018-12-26T09:00:00.851Z,10.0
2018-12-26T09:05:00.945Z,10.4
2018-12-26T09:10:00.881Z,10.9
2018-12-26T09:15:00.878Z,11.8
2018-12-26T09:20:00.858Z,11.2
2018-12-26T09:25:01.014Z,11.1
2018-12-26T09:30:00.887Z,10.9
2018-12-26T09:35:01.027Z,10.5
2018-12-26T09:40:01.161Z,10.1
2018-12-26T09:45:00.890Z,11.4
2018-12-26T09:50:00.981Z,11.1
2018-12-26T09:55:01.019Z,11.2
2018-12-26T10:00:00.887Z,11.5
2018-12-26T10:05:00.948Z,11.6
2018-12-26T10:10:00.894Z,10.4
2018-12-26T10:15:00.959Z,11.2
2018-12-26T10:20:00.897Z,11.1
2018-12-26T10:25:01.026Z,10.4
2018-12-26T10:30:00.896Z,10.4
2018-12-26T10:35:02.236Z,11.1
2018-12-26T10:40:00.897Z,10.2
2018-12-26T10:45:00.966Z,9.4
2018-12-26T10:50:05.905Z,8.8
2018-12-26T10:55:01.026Z,7.8
2018-12-26T11:00:00.933Z,7.2
2018-12-26T11:05:06.038Z,7.1
2018-12-26T11:10:05.916Z,6.7
2018-12-26T11:15:00.969Z,6.7
2018-12-26T11:20:00.908Z,6.6
2018-12-26T11:25:00.901Z,6.0
2018-12-26T11:30:00.908Z,5.2
2018-12-26T11:40:00.979Z,5.6
2018-12-26T11:45:00.984Z,6.1
2018-12-26T11:50:00.915Z,6.6
2018-12-26T11:55:00.984Z,7.0
2018-12-26T12:00:00.922Z,7.2
2018-12-26T12:05:01.048Z,7.1
2018-12-26T12:15:00.989Z,8.0
2018-12-26T12:20:05.937Z,9.0
2018-12-26T12:25:11.007Z,9.8
2018-12-26T12:30:10.938Z,11.0
2018-12-26T12:35:06.076Z,11.2
2018-12-26T12:40:10.941Z,10.4
2018-12-26T12:45:06.005Z,10.0
2018-12-26T12:50:05.940Z,10.4
2018-12-26T12:55:06.017Z,9.6
2018-12-26T13:00:10.949Z,9.7
2018-12-26T13:05:06.092Z,10.3
2018-12-26T13:10:00.954Z,11.5
2018-12-26T13:15:06.004Z,11.2
2018-12-26T13:20:00.915Z,11.8
2018-12-26T13:25:01.008Z,12.4
2018-12-26T13:30:00.937Z,11.9
2018-12-26T13:35:01.070Z,12.5
2018-12-26T13:40:01.082Z,13.1
2018-12-26T13:45:01.014Z,13.6
2018-12-26T13:50:10.959Z,14.5
2018-12-26T13:55:01.026Z,15.5
2018-12-26T14:00:02.334Z,15.0
2018-12-26T14:05:01.080Z,16.3
2018-12-26T14:10:00.957Z,30.6
2018-12-26T14:15:01.027Z,31.5
2018-12-26T14:20:00.961Z,31.4
2018-12-26T14:25:01.253Z,32.0
2018-12-26T14:30:00.959Z,30.6
2018-12-26T14:35:01.091Z,16.1
2018-12-26T14:40:00.931Z,14.5
2018-12-26T14:45:01.096Z,14.0
2018-12-26T14:50:01.898Z,13.6
2018-12-26T15:00:00.959Z,12.9
2018-12-26T15:05:00.981Z,12.8
2018-12-26T15:10:00.974Z,12.9
2018-12-26T15:15:01.099Z,12.6
2018-12-26T15:25:01.034Z,17.0
2018-12-26T15:30:00.970Z,17.9
2018-12-26T15:35:01.044Z,18.0
2018-12-26T15:40:00.977Z,17.1
2018-12-26T15:45:01.108Z,16.6
2018-12-26T15:50:02.011Z,12.8
2018-12-26T15:55:01.047Z,11.4
2018-12-26T16:00:05.982Z,11.7
2018-12-26T16:05:11.060Z,11.9
2018-12-26T16:10:00.976Z,11.8
2018-12-26T16:15:01.116Z,12.6
2018-12-26T16:20:00.983Z,12.4
2018-12-26T16:25:01.090Z,13.0
2018-12-26T16:30:01.021Z,13.6
2018-12-26T16:35:01.154Z,14.7
2018-12-26T16:40:01.047Z,16.6
2018-12-26T16:45:01.240Z,17.0
2018-12-26T16:55:01.116Z,16.9
2018-12-26T17:00:06.011Z,17.4
2018-12-26T17:05:01.058Z,15.5
2018-12-26T17:10:00.994Z,17.8
2018-12-26T17:15:01.153Z,18.0
2018-12-26T17:20:01.026Z,18.5
2018-12-26T17:25:01.067Z,19.6
2018-12-26T17:30:02.063Z,19.9
2018-12-26T17:35:01.049Z,19.6
2018-12-26T17:40:02.109Z,19.9
2018-12-26T17:45:01.172Z,20.2
2018-12-26T17:50:01.043Z,20.3
2018-12-26T18:10:01.194Z,19.8
2018-12-26T18:15:00.460Z,21.1
2018-12-26T18:20:00.399Z,20.3
2018-12-26T18:25:00.752Z,19.4
2018-12-26T18:30:05.165Z,19.9
2018-12-26T18:35:00.409Z,18.7
2018-12-26T18:40:00.355Z,17.7
2018-12-26T18:45:00.237Z,17.3
2018-12-26T18:50:00.161Z,17.4
2018-12-26T18:55:00.650Z,16.9
2018-12-26T19:00:00.432Z,17.5
2018-12-26T19:05:00.491Z,17.2
2018-12-26T19:10:00.316Z,16.1
2018-12-26T19:15:00.236Z,14.9
2018-12-26T19:20:00.318Z,14.3
2018-12-26T19:25:01.347Z,13.9
2018-12-26T19:30:02.563Z,14.0
2018-12-26T19:35:00.433Z,14.2
2018-12-26T19:40:00.376Z,14.3
2018-12-26T19:45:00.484Z,13.4
2018-12-26T19:50:04.676Z,12.8
2018-12-26T19:55:00.413Z,12.0
2018-12-26T20:00:00.353Z,12.2
2018-12-26T20:05:00.411Z,12.4
2018-12-26T20:10:00.515Z,13.0
2018-12-26T20:15:00.464Z,13.2
2018-12-26T20:20:00.437Z,12.7
2018-12-26T20:25:00.487Z,12.8
2018-12-26T20:30:00.364Z,12.2
2018-12-26T20:35:00.354Z,11.1
2018-12-26T20:40:00.307Z,10.2
2018-12-26T20:45:00.383Z,9.2
2018-12-26T20:50:00.306Z,7.6
2018-12-26T20:55:00.547Z,7.1
2018-12-26T21:00:00.354Z,7.1
2018-12-26T21:05:00.678Z,6.8
2018-12-26T21:10:00.413Z,7.0
2018-12-26T21:15:00.426Z,8.1
2018-12-26T21:20:02.129Z,9.2
2018-12-26T21:25:00.802Z,9.5
2018-12-26T21:30:01.135Z,9.6
2018-12-26T21:35:00.365Z,10.2
2018-12-26T21:40:00.336Z,9.6
2018-12-26T21:45:00.446Z,9.5
2018-12-26T21:50:00.376Z,9.2
2018-12-26T21:55:00.627Z,9.5
2018-12-26T22:00:00.552Z,10.0
2018-12-26T22:05:00.465Z,10.8
2018-12-26T22:10:00.401Z,10.6
2018-12-26T22:15:00.425Z,10.8
2018-12-26T22:20:00.412Z,11.2
2018-12-26T22:30:00.622Z,12.0
2018-12-26T22:35:00.455Z,13.2
2018-12-26T22:40:00.354Z,15.0
2018-12-26T22:45:00.376Z,15.8
2018-12-26T22:50:00.291Z,15.4
2018-12-26T22:55:00.439Z,15.2
2018-12-26T23:00:00.412Z,14.9
2018-12-26T23:05:00.301Z,15.3
2018-12-26T23:10:00.382Z,15.9
2018-12-26T23:15:00.464Z,17.9
2018-12-26T23:20:00.287Z,18.5
2018-12-26T23:25:01.187Z,20.8
2018-12-26T23:30:00.305Z,21.8
2018-12-26T23:40:00.426Z,22.1
2018-12-26T23:45:00.414Z,22.2
2018-12-26T23:50:00.325Z,20.8
2018-12-26T23:55:01.159Z,20.5
